Amburgey, Kentucky
Current Conditions -  °F | °C
As of 7:55 PM on Thursday 30 Oct 2014 (Local Time) from KI35 Reporting Station
Clear Clear  
Wind Chill: 50°   Ceiling: Unl
Heat Index: 50°   Visibility: 10mi
Dew Point: 34°   Wind: 3mph
Humidity: 54%   Direction: 60°ENE
Pressure: 30.03"   Gusts: NA
Location:  37.1842°N, 83.1053°W
Report Text: KI35 302355Z AUTO 06003KT 10SM CLR 10/01 A3003 RMK AO1
Loading
Personal Weather Stations






























Interactive Weather Map
Tropical Storm Tracking
New forecast layout! Learn more

10-Day Weather Forecast

Advertisements
Track Severe Weather on mobile